sensor_id;sensor_type;location;lat;lon;timestamp;P1;durP1;ratioP1;P2;durP2;ratioP2
74074;SDS011;62428;51.412;5.432;2022-08-01T00:02:05;9.38;;;5.40;;
74074;SDS011;62428;51.412;5.432;2022-08-01T00:04:30;7.33;;;5.30;;
74074;SDS011;62428;51.412;5.432;2022-08-01T00:06:56;11.23;;;6.10;;
74074;SDS011;62428;51.412;5.432;2022-08-01T00:09:21;11.67;;;5.87;;
74074;SDS011;62428;51.412;5.432;2022-08-01T00:11:46;14.43;;;6.37;;
74074;SDS011;62428;51.412;5.432;2022-08-01T00:14:12;7.73;;;5.60;;
74074;SDS011;62428;51.412;5.432;2022-08-01T00:16:37;14.68;;;6.22;;
74074;SDS011;62428;51.412;5.432;2022-08-01T00:19:03;11.93;;;6.87;;
74074;SDS011;62428;51.412;5.432;2022-08-01T00:21:28;14.03;;;6.67;;
74074;SDS011;62428;51.412;5.432;2022-08-01T00:23:53;9.93;;;5.80;;
74074;SDS011;62428;51.412;5.432;2022-08-01T00:26:19;14.87;;;6.53;;
74074;SDS011;62428;51.412;5.432;2022-08-01T00:28:44;15.50;;;7.63;;
74074;SDS011;62428;51.412;5.432;2022-08-01T00:31:10;13.50;;;6.83;;
74074;SDS011;62428;51.412;5.432;2022-08-01T00:33:35;11.10;;;6.60;;
74074;SDS011;62428;51.412;5.432;2022-08-01T00:36:01;13.60;;;7.20;;
74074;SDS011;62428;51.412;5.432;2022-08-01T00:38:26;13.30;;;7.40;;
74074;SDS011;62428;51.412;5.432;2022-08-01T00:40:51;12.73;;;7.33;;
74074;SDS011;62428;51.412;5.432;2022-08-01T00:43:17;16.93;;;7.93;;
74074;SDS011;62428;51.412;5.432;2022-08-01T00:45:42;16.17;;;7.83;;
74074;SDS011;62428;51.412;5.432;2022-08-01T00:48:07;14.87;;;8.40;;
74074;SDS011;62428;51.412;5.432;2022-08-01T00:50:33;16.23;;;8.17;;
74074;SDS011;62428;51.412;5.432;2022-08-01T00:52:59;14.82;;;8.73;;
74074;SDS011;62428;51.412;5.432;2022-08-01T00:55:26;13.63;;;8.67;;
74074;SDS011;62428;51.412;5.432;2022-08-01T00:57:52;17.15;;;9.40;;
74074;SDS011;62428;51.412;5.432;2022-08-01T01:00:17;15.77;;;8.93;;
74074;SDS011;62428;51.412;5.432;2022-08-01T01:02:43;17.98;;;8.90;;
74074;SDS011;62428;51.412;5.432;2022-08-01T01:05:08;17.83;;;9.83;;
74074;SDS011;62428;51.412;5.432;2022-08-01T01:07:36;16.08;;;9.00;;
74074;SDS011;62428;51.412;5.432;2022-08-01T01:13:06;19.67;;;9.03;;
74074;SDS011;62428;51.412;5.432;2022-08-01T01:18:27;19.38;;;9.93;;
74074;SDS011;62428;51.412;5.432;2022-08-01T01:21:07;16.45;;;9.52;;
74074;SDS011;62428;51.412;5.432;2022-08-01T01:24:03;19.90;;;10.85;;
74074;SDS011;62428;51.412;5.432;2022-08-01T01:26:57;17.40;;;9.83;;
74074;SDS011;62428;51.412;5.432;2022-08-01T01:29:32;20.48;;;10.90;;
74074;SDS011;62428;51.412;5.432;2022-08-01T01:34:38;17.33;;;10.30;;
74074;SDS011;62428;51.412;5.432;2022-08-01T01:37:09;24.63;;;11.98;;
74074;SDS011;62428;51.412;5.432;2022-08-01T01:39:39;21.07;;;10.90;;
74074;SDS011;62428;51.412;5.432;2022-08-01T01:42:06;20.23;;;10.75;;
74074;SDS011;62428;51.412;5.432;2022-08-01T01:44:36;21.13;;;11.68;;
74074;SDS011;62428;51.412;5.432;2022-08-01T01:47:03;23.67;;;11.85;;
74074;SDS011;62428;51.412;5.432;2022-08-01T01:49:30;22.48;;;13.15;;
74074;SDS011;62428;51.412;5.432;2022-08-01T01:51:58;23.00;;;11.93;;
74074;SDS011;62428;51.412;5.432;2022-08-01T01:54:28;21.20;;;11.90;;
74074;SDS011;62428;51.412;5.432;2022-08-01T01:56:58;21.50;;;12.60;;
74074;SDS011;62428;51.412;5.432;2022-08-01T01:59:27;20.67;;;12.60;;
74074;SDS011;62428;51.412;5.432;2022-08-01T02:01:55;23.40;;;12.55;;
74074;SDS011;62428;51.412;5.432;2022-08-01T02:04:24;18.77;;;12.37;;
74074;SDS011;62428;51.412;5.432;2022-08-01T02:06:51;23.45;;;12.70;;
74074;SDS011;62428;51.412;5.432;2022-08-01T02:09:20;26.10;;;12.80;;
74074;SDS011;62428;51.412;5.432;2022-08-01T02:11:47;21.90;;;11.32;;
74074;SDS011;62428;51.412;5.432;2022-08-01T02:14:14;22.48;;;12.07;;
74074;SDS011;62428;51.412;5.432;2022-08-01T02:16:42;19.27;;;12.10;;
74074;SDS011;62428;51.412;5.432;2022-08-01T02:19:10;21.60;;;12.40;;
74074;SDS011;62428;51.412;5.432;2022-08-01T02:21:40;19.17;;;11.07;;
74074;SDS011;62428;51.412;5.432;2022-08-01T02:24:17;22.65;;;12.05;;
74074;SDS011;62428;51.412;5.432;2022-08-01T02:26:49;23.97;;;12.17;;
74074;SDS011;62428;51.412;5.432;2022-08-01T02:29:19;23.40;;;12.70;;
74074;SDS011;62428;51.412;5.432;2022-08-01T02:31:49;21.08;;;12.13;;
74074;SDS011;62428;51.412;5.432;2022-08-01T02:34:19;22.50;;;12.82;;
74074;SDS011;62428;51.412;5.432;2022-08-01T02:36:46;23.35;;;13.27;;
74074;SDS011;62428;51.412;5.432;2022-08-01T02:39:14;24.60;;;12.67;;
74074;SDS011;62428;51.412;5.432;2022-08-01T02:41:42;23.77;;;12.90;;
74074;SDS011;62428;51.412;5.432;2022-08-01T02:44:10;27.42;;;13.52;;
74074;SDS011;62428;51.412;5.432;2022-08-01T02:46:43;27.77;;;14.02;;
74074;SDS011;62428;51.412;5.432;2022-08-01T02:49:14;23.83;;;12.57;;
74074;SDS011;62428;51.412;5.432;2022-08-01T02:51:41;22.87;;;13.57;;
74074;SDS011;62428;51.412;5.432;2022-08-01T02:54:10;25.23;;;12.98;;
74074;SDS011;62428;51.412;5.432;2022-08-01T02:56:36;23.15;;;13.73;;
74074;SDS011;62428;51.412;5.432;2022-08-01T02:59:07;25.45;;;13.18;;
74074;SDS011;62428;51.412;5.432;2022-08-01T03:01:34;26.92;;;14.40;;
74074;SDS011;62428;51.412;5.432;2022-08-01T03:04:01;24.17;;;13.83;;
74074;SDS011;62428;51.412;5.432;2022-08-01T03:06:30;25.20;;;14.23;;
74074;SDS011;62428;51.412;5.432;2022-08-01T03:08:57;26.05;;;14.15;;
74074;SDS011;62428;51.412;5.432;2022-08-01T03:11:24;21.17;;;13.60;;
74074;SDS011;62428;51.412;5.432;2022-08-01T03:13:52;25.60;;;13.98;;
74074;SDS011;62428;51.412;5.432;2022-08-01T03:16:18;24.60;;;13.53;;
74074;SDS011;62428;51.412;5.432;2022-08-01T03:18:47;26.58;;;13.57;;
74074;SDS011;62428;51.412;5.432;2022-08-01T03:21:15;23.40;;;13.02;;
74074;SDS011;62428;51.412;5.432;2022-08-01T03:23:43;25.05;;;13.95;;
74074;SDS011;62428;51.412;5.432;2022-08-01T03:26:10;22.30;;;13.00;;
74074;SDS011;62428;51.412;5.432;2022-08-01T03:28:37;26.53;;;14.40;;
74074;SDS011;62428;51.412;5.432;2022-08-01T03:31:05;22.63;;;13.30;;
74074;SDS011;62428;51.412;5.432;2022-08-01T03:33:30;24.67;;;12.50;;
74074;SDS011;62428;51.412;5.432;2022-08-01T03:35:57;18.48;;;11.90;;
74074;SDS011;62428;51.412;5.432;2022-08-01T03:38:25;21.73;;;12.65;;
74074;SDS011;62428;51.412;5.432;2022-08-01T03:40:56;23.42;;;12.35;;
74074;SDS011;62428;51.412;5.432;2022-08-01T03:43:30;21.63;;;12.47;;
74074;SDS011;62428;51.412;5.432;2022-08-01T03:46:02;22.05;;;12.02;;
74074;SDS011;62428;51.412;5.432;2022-08-01T03:48:36;22.23;;;11.95;;
74074;SDS011;62428;51.412;5.432;2022-08-01T03:51:07;18.05;;;11.38;;
74074;SDS011;62428;51.412;5.432;2022-08-01T03:53:33;18.33;;;10.77;;
74074;SDS011;62428;51.412;5.432;2022-08-01T03:56:01;22.47;;;11.13;;
74074;SDS011;62428;51.412;5.432;2022-08-01T03:58:28;19.08;;;10.40;;
74074;SDS011;62428;51.412;5.432;2022-08-01T04:00:55;18.25;;;10.35;;
74074;SDS011;62428;51.412;5.432;2022-08-01T04:03:21;17.87;;;10.63;;
74074;SDS011;62428;51.412;5.432;2022-08-01T04:05:48;17.00;;;9.87;;
74074;SDS011;62428;51.412;5.432;2022-08-01T04:08:13;19.10;;;10.43;;
74074;SDS011;62428;51.412;5.432;2022-08-01T04:10:39;19.80;;;10.53;;
74074;SDS011;62428;51.412;5.432;2022-08-01T04:13:04;20.63;;;10.93;;
74074;SDS011;62428;51.412;5.432;2022-08-01T04:15:29;20.60;;;11.67;;
74074;SDS011;62428;51.412;5.432;2022-08-01T04:17:55;19.80;;;11.03;;
74074;SDS011;62428;51.412;5.432;2022-08-01T04:20:20;25.00;;;11.37;;
74074;SDS011;62428;51.412;5.432;2022-08-01T04:22:46;21.55;;;12.18;;
74074;SDS011;62428;51.412;5.432;2022-08-01T04:25:22;21.27;;;12.03;;
74074;SDS011;62428;51.412;5.432;2022-08-01T04:27:51;23.35;;;11.88;;
74074;SDS011;62428;51.412;5.432;2022-08-01T04:30:20;23.13;;;12.02;;
74074;SDS011;62428;51.412;5.432;2022-08-01T04:32:49;22.95;;;11.32;;
74074;SDS011;62428;51.412;5.432;2022-08-01T04:35:18;21.90;;;11.80;;
74074;SDS011;62428;51.412;5.432;2022-08-01T04:37:45;24.58;;;12.63;;
74074;SDS011;62428;51.412;5.432;2022-08-01T04:40:13;23.92;;;13.35;;
74074;SDS011;62428;51.412;5.432;2022-08-01T04:42:39;25.95;;;13.30;;
74074;SDS011;62428;51.412;5.432;2022-08-01T04:45:05;26.23;;;14.23;;
74074;SDS011;62428;51.412;5.432;2022-08-01T04:47:33;25.98;;;14.13;;
74074;SDS011;62428;51.412;5.432;2022-08-01T04:50:00;26.77;;;14.40;;
74074;SDS011;62428;51.412;5.432;2022-08-01T04:52:32;26.67;;;14.65;;
74074;SDS011;62428;51.412;5.432;2022-08-01T04:54:59;29.00;;;14.67;;
74074;SDS011;62428;51.412;5.432;2022-08-01T04:57:24;26.60;;;14.83;;
74074;SDS011;62428;51.412;5.432;2022-08-01T04:59:50;28.40;;;14.23;;
74074;SDS011;62428;51.412;5.432;2022-08-01T05:02:21;28.63;;;14.40;;
74074;SDS011;62428;51.412;5.432;2022-08-01T05:04:47;26.13;;;14.25;;
74074;SDS011;62428;51.412;5.432;2022-08-01T05:07:13;27.13;;;14.07;;
74074;SDS011;62428;51.412;5.432;2022-08-01T05:09:38;25.47;;;13.97;;
74074;SDS011;62428;51.412;5.432;2022-08-01T05:12:06;25.17;;;14.20;;
74074;SDS011;62428;51.412;5.432;2022-08-01T05:14:33;24.05;;;13.18;;
74074;SDS011;62428;51.412;5.432;2022-08-01T05:16:59;25.67;;;14.35;;
74074;SDS011;62428;51.412;5.432;2022-08-01T05:19:32;24.92;;;14.45;;
74074;SDS011;62428;51.412;5.432;2022-08-01T05:21:58;30.65;;;15.35;;
74074;SDS011;62428;51.412;5.432;2022-08-01T05:24:26;28.47;;;15.00;;
74074;SDS011;62428;51.412;5.432;2022-08-01T05:26:55;29.63;;;14.18;;
74074;SDS011;62428;51.412;5.432;2022-08-01T05:29:21;28.48;;;14.48;;
74074;SDS011;62428;51.412;5.432;2022-08-01T05:31:46;27.73;;;14.77;;
74074;SDS011;62428;51.412;5.432;2022-08-01T05:34:11;28.10;;;14.80;;
74074;SDS011;62428;51.412;5.432;2022-08-01T05:36:37;27.47;;;13.80;;
74074;SDS011;62428;51.412;5.432;2022-08-01T05:39:02;25.60;;;14.10;;
74074;SDS011;62428;51.412;5.432;2022-08-01T05:41:29;25.35;;;14.55;;
74074;SDS011;62428;51.412;5.432;2022-08-01T05:43:55;25.50;;;13.52;;
74074;SDS011;62428;51.412;5.432;2022-08-01T05:46:20;22.53;;;13.23;;
74074;SDS011;62428;51.412;5.432;2022-08-01T05:48:45;29.30;;;13.33;;
74074;SDS011;62428;51.412;5.432;2022-08-01T05:51:11;23.80;;;13.40;;
74074;SDS011;62428;51.412;5.432;2022-08-01T05:53:36;25.07;;;13.17;;
74074;SDS011;62428;51.412;5.432;2022-08-01T05:56:01;19.97;;;11.90;;
74074;SDS011;62428;51.412;5.432;2022-08-01T05:58:27;19.50;;;10.77;;
74074;SDS011;62428;51.412;5.432;2022-08-01T06:00:52;22.95;;;11.90;;
74074;SDS011;62428;51.412;5.432;2022-08-01T06:03:18;20.50;;;11.67;;
74074;SDS011;62428;51.412;5.432;2022-08-01T06:05:43;21.23;;;11.23;;
74074;SDS011;62428;51.412;5.432;2022-08-01T06:08:09;21.13;;;10.67;;
74074;SDS011;62428;51.412;5.432;2022-08-01T06:10:34;17.93;;;10.60;;
74074;SDS011;62428;51.412;5.432;2022-08-01T06:12:59;20.58;;;11.02;;
74074;SDS011;62428;51.412;5.432;2022-08-01T06:15:28;19.67;;;11.17;;
74074;SDS011;62428;51.412;5.432;2022-08-01T06:17:56;20.45;;;10.57;;
74074;SDS011;62428;51.412;5.432;2022-08-01T06:20:22;22.47;;;10.00;;
74074;SDS011;62428;51.412;5.432;2022-08-01T06:22:47;16.07;;;8.80;;
74074;SDS011;62428;51.412;5.432;2022-08-01T06:25:13;13.95;;;8.18;;
74074;SDS011;62428;51.412;5.432;2022-08-01T06:27:38;14.00;;;7.40;;
74074;SDS011;62428;51.412;5.432;2022-08-01T06:30:04;13.03;;;6.97;;
74074;SDS011;62428;51.412;5.432;2022-08-01T06:32:30;12.60;;;6.25;;
74074;SDS011;62428;51.412;5.432;2022-08-01T06:34:56;13.13;;;6.80;;
74074;SDS011;62428;51.412;5.432;2022-08-01T06:37:22;11.98;;;7.10;;
74074;SDS011;62428;51.412;5.432;2022-08-01T06:39:47;11.93;;;6.87;;
74074;SDS011;62428;51.412;5.432;2022-08-01T06:42:14;10.45;;;6.53;;
74074;SDS011;62428;51.412;5.432;2022-08-01T06:44:40;14.00;;;7.07;;
74074;SDS011;62428;51.412;5.432;2022-08-01T06:47:05;11.73;;;6.63;;
74074;SDS011;62428;51.412;5.432;2022-08-01T06:49:31;9.83;;;6.03;;
74074;SDS011;62428;51.412;5.432;2022-08-01T06:51:56;7.27;;;5.00;;
74074;SDS011;62428;51.412;5.432;2022-08-01T06:54:21;10.38;;;4.20;;
74074;SDS011;62428;51.412;5.432;2022-08-01T06:56:47;6.80;;;3.30;;
74074;SDS011;62428;51.412;5.432;2022-08-01T06:59:12;8.57;;;3.93;;
74074;SDS011;62428;51.412;5.432;2022-08-01T07:01:37;8.20;;;3.40;;
74074;SDS011;62428;51.412;5.432;2022-08-01T07:04:03;6.50;;;2.80;;
74074;SDS011;62428;51.412;5.432;2022-08-01T07:06:28;4.30;;;2.30;;
74074;SDS011;62428;51.412;5.432;2022-08-01T07:08:54;3.20;;;2.03;;
74074;SDS011;62428;51.412;5.432;2022-08-01T07:11:20;5.70;;;1.83;;
74074;SDS011;62428;51.412;5.432;2022-08-01T07:13:46;4.78;;;2.03;;
74074;SDS011;62428;51.412;5.432;2022-08-01T07:16:12;4.63;;;2.03;;
74074;SDS011;62428;51.412;5.432;2022-08-01T07:18:38;3.42;;;2.35;;
74074;SDS011;62428;51.412;5.432;2022-08-01T07:21:04;5.57;;;2.40;;
74074;SDS011;62428;51.412;5.432;2022-08-01T07:23:29;6.23;;;2.80;;
74074;SDS011;62428;51.412;5.432;2022-08-01T07:25:54;4.10;;;2.03;;
74074;SDS011;62428;51.412;5.432;2022-08-01T07:28:20;3.27;;;1.90;;
74074;SDS011;62428;51.412;5.432;2022-08-01T07:30:45;2.93;;;1.60;;
74074;SDS011;62428;51.412;5.432;2022-08-01T07:33:10;3.53;;;1.30;;
74074;SDS011;62428;51.412;5.432;2022-08-01T07:35:36;2.20;;;1.40;;
74074;SDS011;62428;51.412;5.432;2022-08-01T07:38:05;3.08;;;2.10;;
74074;SDS011;62428;51.412;5.432;2022-08-01T07:40:31;3.97;;;1.55;;
74074;SDS011;62428;51.412;5.432;2022-08-01T07:42:57;4.17;;;1.53;;
74074;SDS011;62428;51.412;5.432;2022-08-01T07:45:22;2.83;;;1.80;;
74074;SDS011;62428;51.412;5.432;2022-08-01T07:47:47;3.20;;;1.30;;
74074;SDS011;62428;51.412;5.432;2022-08-01T07:50:15;3.63;;;1.90;;
74074;SDS011;62428;51.412;5.432;2022-08-01T07:52:41;4.07;;;1.60;;
74074;SDS011;62428;51.412;5.432;2022-08-01T07:55:07;3.58;;;1.30;;
74074;SDS011;62428;51.412;5.432;2022-08-01T07:57:33;3.22;;;1.33;;
74074;SDS011;62428;51.412;5.432;2022-08-01T07:59:59;4.20;;;1.47;;
74074;SDS011;62428;51.412;5.432;2022-08-01T08:02:24;4.87;;;1.87;;
74074;SDS011;62428;51.412;5.432;2022-08-01T08:04:49;3.67;;;1.60;;
74074;SDS011;62428;51.412;5.432;2022-08-01T08:07:15;3.23;;;1.47;;
74074;SDS011;62428;51.412;5.432;2022-08-01T08:09:40;1.55;;;1.40;;
74074;SDS011;62428;51.412;5.432;2022-08-01T08:12:06;2.73;;;1.63;;
74074;SDS011;62428;51.412;5.432;2022-08-01T08:14:31;4.77;;;1.97;;
74074;SDS011;62428;51.412;5.432;2022-08-01T08:16:56;2.47;;;1.60;;
74074;SDS011;62428;51.412;5.432;2022-08-01T08:19:22;2.73;;;1.60;;
74074;SDS011;62428;51.412;5.432;2022-08-01T08:21:47;2.23;;;2.00;;
74074;SDS011;62428;51.412;5.432;2022-08-01T08:24:12;2.13;;;1.93;;
74074;SDS011;62428;51.412;5.432;2022-08-01T08:26:49;4.10;;;2.20;;
74074;SDS011;62428;51.412;5.432;2022-08-01T08:29:16;3.15;;;2.30;;
74074;SDS011;62428;51.412;5.432;2022-08-01T08:31:41;3.30;;;1.70;;
74074;SDS011;62428;51.412;5.432;2022-08-01T08:34:07;2.80;;;2.20;;
74074;SDS011;62428;51.412;5.432;2022-08-01T08:36:32;3.27;;;1.90;;
74074;SDS011;62428;51.412;5.432;2022-08-01T08:38:58;3.23;;;2.00;;
74074;SDS011;62428;51.412;5.432;2022-08-01T08:41:28;5.25;;;2.40;;
74074;SDS011;62428;51.412;5.432;2022-08-01T08:43:57;3.83;;;2.20;;
74074;SDS011;62428;51.412;5.432;2022-08-01T08:46:25;4.18;;;2.53;;
74074;SDS011;62428;51.412;5.432;2022-08-01T08:48:52;2.77;;;2.37;;
74074;SDS011;62428;51.412;5.432;2022-08-01T08:51:18;3.10;;;1.95;;
74074;SDS011;62428;51.412;5.432;2022-08-01T08:53:44;3.08;;;1.80;;
74074;SDS011;62428;51.412;5.432;2022-08-01T08:56:11;1.85;;;1.50;;
74074;SDS011;62428;51.412;5.432;2022-08-01T08:58:38;4.78;;;1.73;;
74074;SDS011;62428;51.412;5.432;2022-08-01T09:01:05;1.93;;;1.73;;
74074;SDS011;62428;51.412;5.432;2022-08-01T09:03:33;2.10;;;1.58;;
74074;SDS011;62428;51.412;5.432;2022-08-01T09:05:59;2.53;;;1.90;;
74074;SDS011;62428;51.412;5.432;2022-08-01T09:08:24;4.73;;;1.90;;
74074;SDS011;62428;51.412;5.432;2022-08-01T09:10:49;3.70;;;2.30;;
74074;SDS011;62428;51.412;5.432;2022-08-01T09:13:15;2.10;;;1.90;;
74074;SDS011;62428;51.412;5.432;2022-08-01T09:15:41;4.03;;;2.30;;
74074;SDS011;62428;51.412;5.432;2022-08-01T09:18:24;3.13;;;1.83;;
74074;SDS011;62428;51.412;5.432;2022-08-01T09:23:53;4.35;;;2.50;;
74074;SDS011;62428;51.412;5.432;2022-08-01T09:26:20;2.15;;;1.77;;
74074;SDS011;62428;51.412;5.432;2022-08-01T09:28:52;2.73;;;1.63;;
74074;SDS011;62428;51.412;5.432;2022-08-01T09:31:18;1.90;;;1.60;;
74074;SDS011;62428;51.412;5.432;2022-08-01T09:33:48;2.33;;;1.50;;
74074;SDS011;62428;51.412;5.432;2022-08-01T09:36:18;2.60;;;1.80;;
74074;SDS011;62428;51.412;5.432;2022-08-01T09:38:45;5.70;;;2.20;;
74074;SDS011;62428;51.412;5.432;2022-08-01T09:41:11;3.65;;;2.20;;
74074;SDS011;62428;51.412;5.432;2022-08-01T09:43:37;2.97;;;2.20;;
74074;SDS011;62428;51.412;5.432;2022-08-01T09:46:09;2.10;;;1.90;;
74074;SDS011;62428;51.412;5.432;2022-08-01T09:48:42;3.88;;;2.05;;
74074;SDS011;62428;51.412;5.432;2022-08-01T09:51:30;2.70;;;1.80;;
74074;SDS011;62428;51.412;5.432;2022-08-01T09:54:00;2.92;;;2.30;;
74074;SDS011;62428;51.412;5.432;2022-08-01T09:56:35;3.70;;;1.80;;
74074;SDS011;62428;51.412;5.432;2022-08-01T09:59:02;1.60;;;1.35;;
74074;SDS011;62428;51.412;5.432;2022-08-01T10:01:49;1.73;;;1.20;;
74074;SDS011;62428;51.412;5.432;2022-08-01T10:04:15;1.85;;;1.23;;
74074;SDS011;62428;51.412;5.432;2022-08-01T10:06:43;2.85;;;1.50;;
74074;SDS011;62428;51.412;5.432;2022-08-01T10:09:26;2.53;;;1.50;;
74074;SDS011;62428;51.412;5.432;2022-08-01T10:11:56;2.17;;;1.20;;
74074;SDS011;62428;51.412;5.432;2022-08-01T10:14:24;2.45;;;1.40;;
74074;SDS011;62428;51.412;5.432;2022-08-01T10:16:51;1.80;;;1.27;;
74074;SDS011;62428;51.412;5.432;2022-08-01T10:19:18;2.25;;;1.55;;
74074;SDS011;62428;51.412;5.432;2022-08-01T10:21:46;2.13;;;1.93;;
74074;SDS011;62428;51.412;5.432;2022-08-01T10:24:14;1.95;;;1.77;;
74074;SDS011;62428;51.412;5.432;2022-08-01T10:26:40;2.45;;;1.50;;
74074;SDS011;62428;51.412;5.432;2022-08-01T10:29:07;1.92;;;1.40;;
74074;SDS011;62428;51.412;5.432;2022-08-01T10:31:34;2.27;;;1.17;;
74074;SDS011;62428;51.412;5.432;2022-08-01T10:33:59;2.53;;;1.08;;
74074;SDS011;62428;51.412;5.432;2022-08-01T10:36:26;1.88;;;0.88;;
74074;SDS011;62428;51.412;5.432;2022-08-01T10:38:53;1.57;;;1.30;;
74074;SDS011;62428;51.412;5.432;2022-08-01T10:41:21;1.30;;;1.20;;
74074;SDS011;62428;51.412;5.432;2022-08-01T10:43:46;1.73;;;1.40;;
74074;SDS011;62428;51.412;5.432;2022-08-01T10:46:12;1.47;;;1.37;;
74074;SDS011;62428;51.412;5.432;2022-08-01T10:48:50;4.27;;;1.40;;
74074;SDS011;62428;51.412;5.432;2022-08-01T10:51:21;1.30;;;1.05;;
74074;SDS011;62428;51.412;5.432;2022-08-01T10:53:52;2.33;;;1.40;;
74074;SDS011;62428;51.412;5.432;2022-08-01T10:56:18;2.45;;;1.15;;
74074;SDS011;62428;51.412;5.432;2022-08-01T10:58:44;1.47;;;1.23;;
74074;SDS011;62428;51.412;5.432;2022-08-01T11:03:40;1.15;;;0.75;;
74074;SDS011;62428;51.412;5.432;2022-08-01T11:06:06;1.80;;;1.38;;
74074;SDS011;62428;51.412;5.432;2022-08-01T11:08:39;2.03;;;1.00;;
74074;SDS011;62428;51.412;5.432;2022-08-01T11:11:07;1.70;;;1.30;;
74074;SDS011;62428;51.412;5.432;2022-08-01T11:16:26;1.98;;;1.15;;
74074;SDS011;62428;51.412;5.432;2022-08-01T11:18:52;5.05;;;1.52;;
74074;SDS011;62428;51.412;5.432;2022-08-01T11:21:17;2.13;;;1.27;;
74074;SDS011;62428;51.412;5.432;2022-08-01T11:23:47;2.05;;;1.30;;
74074;SDS011;62428;51.412;5.432;2022-08-01T11:26:15;1.60;;;0.80;;
74074;SDS011;62428;51.412;5.432;2022-08-01T11:28:41;1.95;;;1.23;;
74074;SDS011;62428;51.412;5.432;2022-08-01T11:38:39;1.57;;;0.97;;
74074;SDS011;62428;51.412;5.432;2022-08-01T11:41:10;1.52;;;1.00;;
74074;SDS011;62428;51.412;5.432;2022-08-01T11:43:36;1.95;;;1.15;;
74074;SDS011;62428;51.412;5.432;2022-08-01T11:52:09;3.10;;;1.10;;
74074;SDS011;62428;51.412;5.432;2022-08-01T11:57:21;2.85;;;1.33;;
74074;SDS011;62428;51.412;5.432;2022-08-01T11:59:55;2.75;;;1.25;;
74074;SDS011;62428;51.412;5.432;2022-08-01T12:02:22;2.45;;;1.38;;
74074;SDS011;62428;51.412;5.432;2022-08-01T12:04:54;1.73;;;1.07;;
74074;SDS011;62428;51.412;5.432;2022-08-01T12:07:19;1.50;;;1.08;;
74074;SDS011;62428;51.412;5.432;2022-08-01T12:09:45;2.28;;;1.00;;
74074;SDS011;62428;51.412;5.432;2022-08-01T12:12:14;2.47;;;0.73;;
74074;SDS011;62428;51.412;5.432;2022-08-01T12:14:42;2.03;;;0.95;;
74074;SDS011;62428;51.412;5.432;2022-08-01T12:17:08;1.60;;;1.00;;
74074;SDS011;62428;51.412;5.432;2022-08-01T12:19:33;1.90;;;1.00;;
74074;SDS011;62428;51.412;5.432;2022-08-01T12:22:04;2.13;;;1.00;;
74074;SDS011;62428;51.412;5.432;2022-08-01T12:24:30;1.73;;;0.80;;
74074;SDS011;62428;51.412;5.432;2022-08-01T12:26:55;3.10;;;0.90;;
74074;SDS011;62428;51.412;5.432;2022-08-01T12:29:37;2.67;;;0.90;;
74074;SDS011;62428;51.412;5.432;2022-08-01T12:32:04;3.08;;;1.00;;
74074;SDS011;62428;51.412;5.432;2022-08-01T12:34:46;4.22;;;1.30;;
74074;SDS011;62428;51.412;5.432;2022-08-01T12:37:12;2.10;;;0.97;;
74074;SDS011;62428;51.412;5.432;2022-08-01T12:39:37;2.30;;;0.97;;
74074;SDS011;62428;51.412;5.432;2022-08-01T12:42:05;1.45;;;0.93;;
74074;SDS011;62428;51.412;5.432;2022-08-01T12:44:32;1.90;;;1.23;;
74074;SDS011;62428;51.412;5.432;2022-08-01T12:46:58;4.23;;;1.20;;
74074;SDS011;62428;51.412;5.432;2022-08-01T12:49:25;2.10;;;1.08;;
74074;SDS011;62428;51.412;5.432;2022-08-01T12:51:52;2.65;;;1.00;;
74074;SDS011;62428;51.412;5.432;2022-08-01T12:54:18;5.00;;;1.00;;
74074;SDS011;62428;51.412;5.432;2022-08-01T12:56:43;2.47;;;1.10;;
74074;SDS011;62428;51.412;5.432;2022-08-01T12:59:26;3.00;;;0.90;;
74074;SDS011;62428;51.412;5.432;2022-08-01T13:01:54;2.85;;;1.40;;
74074;SDS011;62428;51.412;5.432;2022-08-01T13:04:23;3.77;;;1.30;;
74074;SDS011;62428;51.412;5.432;2022-08-01T13:06:52;3.05;;;1.17;;
74074;SDS011;62428;51.412;5.432;2022-08-01T13:09:18;4.28;;;1.20;;
74074;SDS011;62428;51.412;5.432;2022-08-01T13:11:43;2.63;;;0.97;;
74074;SDS011;62428;51.412;5.432;2022-08-01T13:14:10;3.30;;;1.30;;
74074;SDS011;62428;51.412;5.432;2022-08-01T13:16:52;2.22;;;1.05;;
74074;SDS011;62428;51.412;5.432;2022-08-01T13:19:17;2.00;;;1.00;;
74074;SDS011;62428;51.412;5.432;2022-08-01T13:21:55;3.27;;;1.03;;
74074;SDS011;62428;51.412;5.432;2022-08-01T13:24:31;3.00;;;1.30;;
74074;SDS011;62428;51.412;5.432;2022-08-01T13:26:57;2.75;;;1.20;;
74074;SDS011;62428;51.412;5.432;2022-08-01T13:29:29;3.75;;;1.30;;
74074;SDS011;62428;51.412;5.432;2022-08-01T13:31:56;3.10;;;1.13;;
74074;SDS011;62428;51.412;5.432;2022-08-01T13:34:30;2.58;;;1.00;;
74074;SDS011;62428;51.412;5.432;2022-08-01T13:36:59;2.72;;;1.35;;
74074;SDS011;62428;51.412;5.432;2022-08-01T13:39:26;3.75;;;1.40;;
74074;SDS011;62428;51.412;5.432;2022-08-01T13:42:09;2.90;;;1.40;;
74074;SDS011;62428;51.412;5.432;2022-08-01T13:44:39;4.90;;;1.83;;
74074;SDS011;62428;51.412;5.432;2022-08-01T13:47:05;2.90;;;1.20;;
74074;SDS011;62428;51.412;5.432;2022-08-01T13:49:31;3.38;;;1.40;;
74074;SDS011;62428;51.412;5.432;2022-08-01T13:51:58;5.18;;;1.52;;
74074;SDS011;62428;51.412;5.432;2022-08-01T13:54:24;3.20;;;1.43;;
74074;SDS011;62428;51.412;5.432;2022-08-01T13:56:50;4.00;;;1.40;;
74074;SDS011;62428;51.412;5.432;2022-08-01T13:59:16;4.68;;;1.65;;
74074;SDS011;62428;51.412;5.432;2022-08-01T14:01:42;3.57;;;1.33;;
74074;SDS011;62428;51.412;5.432;2022-08-01T14:04:07;3.60;;;1.45;;
74074;SDS011;62428;51.412;5.432;2022-08-01T14:06:33;4.00;;;1.60;;
74074;SDS011;62428;51.412;5.432;2022-08-01T14:09:00;5.68;;;1.35;;
74074;SDS011;62428;51.412;5.432;2022-08-01T14:11:25;3.93;;;1.60;;
74074;SDS011;62428;51.412;5.432;2022-08-01T14:13:51;4.10;;;1.93;;
74074;SDS011;62428;51.412;5.432;2022-08-01T14:16:16;4.47;;;1.60;;
74074;SDS011;62428;51.412;5.432;2022-08-01T14:18:42;6.27;;;1.50;;
74074;SDS011;62428;51.412;5.432;2022-08-01T14:21:07;6.07;;;1.70;;
74074;SDS011;62428;51.412;5.432;2022-08-01T14:23:32;6.40;;;1.90;;
74074;SDS011;62428;51.412;5.432;2022-08-01T14:25:58;4.10;;;1.90;;
74074;SDS011;62428;51.412;5.432;2022-08-01T14:28:23;3.77;;;1.80;;
74074;SDS011;62428;51.412;5.432;2022-08-01T14:30:49;4.10;;;1.87;;
74074;SDS011;62428;51.412;5.432;2022-08-01T14:33:15;3.90;;;2.00;;
74074;SDS011;62428;51.412;5.432;2022-08-01T14:35:40;4.37;;;1.87;;
74074;SDS011;62428;51.412;5.432;2022-08-01T14:38:06;3.60;;;1.60;;
74074;SDS011;62428;51.412;5.432;2022-08-01T14:40:34;3.27;;;1.30;;
74074;SDS011;62428;51.412;5.432;2022-08-01T14:43:00;6.95;;;1.85;;
74074;SDS011;62428;51.412;5.432;2022-08-01T14:45:26;5.15;;;1.55;;
74074;SDS011;62428;51.412;5.432;2022-08-01T14:47:52;2.53;;;1.57;;
74074;SDS011;62428;51.412;5.432;2022-08-01T14:50:17;3.97;;;1.30;;
74074;SDS011;62428;51.412;5.432;2022-08-01T14:52:45;3.10;;;1.60;;
74074;SDS011;62428;51.412;5.432;2022-08-01T14:55:10;5.20;;;1.30;;
74074;SDS011;62428;51.412;5.432;2022-08-01T14:57:37;4.03;;;1.42;;
74074;SDS011;62428;51.412;5.432;2022-08-01T15:00:04;2.07;;;1.23;;
74074;SDS011;62428;51.412;5.432;2022-08-01T15:02:32;4.72;;;1.30;;
74074;SDS011;62428;51.412;5.432;2022-08-01T15:04:57;3.17;;;1.40;;
74074;SDS011;62428;51.412;5.432;2022-08-01T15:07:23;6.40;;;1.57;;
74074;SDS011;62428;51.412;5.432;2022-08-01T15:09:48;4.20;;;1.77;;
74074;SDS011;62428;51.412;5.432;2022-08-01T15:12:13;4.63;;;1.60;;
74074;SDS011;62428;51.412;5.432;2022-08-01T15:17:31;4.03;;;1.30;;